createdAt,value
2022-10-05T00:00:01.270Z,25.2
2022-10-05T00:05:31.804Z,25.3
2022-10-05T00:11:02.232Z,25.4
2022-10-05T00:16:31.780Z,25.3
2022-10-05T00:22:02.259Z,25.3
2022-10-05T00:27:32.709Z,25.3
2022-10-05T00:33:02.178Z,25.3
2022-10-05T00:38:32.669Z,25.3
2022-10-05T00:44:03.127Z,25.3
2022-10-05T00:49:32.616Z,25.3
2022-10-05T00:55:03.116Z,25.3
2022-10-05T01:00:33.568Z,25.3
2022-10-05T01:06:03.086Z,25.3
2022-10-05T01:11:33.541Z,25.3
2022-10-05T01:17:03.067Z,25.3
2022-10-05T01:22:33.516Z,25.2
2022-10-05T01:28:04.095Z,25.2
2022-10-05T01:33:33.483Z,25.2
2022-10-05T01:39:03.966Z,25.2
2022-10-05T01:44:34.577Z,25.2
2022-10-05T01:50:03.912Z,25.2
2022-10-05T01:55:34.376Z,25.2
2022-10-05T02:01:04.997Z,25.2
2022-10-05T02:06:34.342Z,25.2
2022-10-05T02:12:04.819Z,25.2
2022-10-05T02:17:34.329Z,25.2
2022-10-05T02:23:04.786Z,25.2
2022-10-05T02:28:35.308Z,25.2
2022-10-05T02:34:05.761Z,25.2
2022-10-05T02:39:35.219Z,25.2
2022-10-05T02:45:05.709Z,25.2
2022-10-05T02:50:35.280Z,25.2
2022-10-05T02:56:05.683Z,25.2
2022-10-05T03:01:36.252Z,25.2
2022-10-05T03:07:05.652Z,25.2
2022-10-05T03:12:36.101Z,25.2
2022-10-05T03:18:06.609Z,25.2
2022-10-05T03:23:37.083Z,25.2
2022-10-05T03:29:06.547Z,25.1
2022-10-05T03:34:37.033Z,25.1
2022-10-05T03:40:07.518Z,25.1
2022-10-05T03:45:37.031Z,25.1
2022-10-05T03:51:07.457Z,25.1
2022-10-05T03:56:37.937Z,25.1
2022-10-05T04:02:07.418Z,25.1
2022-10-05T04:07:37.881Z,25.1
2022-10-05T04:13:07.413Z,25.1
2022-10-05T04:18:37.862Z,25.1
2022-10-05T04:24:08.341Z,25.1
2022-10-05T04:29:37.847Z,25.1
2022-10-05T04:35:08.313Z,25.1
2022-10-05T04:40:38.759Z,25.1
2022-10-05T04:46:08.302Z,25
2022-10-05T04:51:38.740Z,25.1
2022-10-05T04:57:09.222Z,25.1
2022-10-05T05:02:38.729Z,25
2022-10-05T05:08:09.206Z,25
2022-10-05T05:13:39.681Z,25
2022-10-05T05:19:09.189Z,25
2022-10-05T05:24:39.654Z,25
2022-10-05T05:30:10.121Z,25
2022-10-05T05:35:39.641Z,25.1
2022-10-05T05:41:10.101Z,25.1
2022-10-05T05:47:02.519Z,25
2022-10-05T05:52:10.138Z,25.1
2022-10-05T05:57:40.543Z,25.1
2022-10-05T06:03:11.171Z,25.1
2022-10-05T06:08:40.521Z,25.2
2022-10-05T06:14:10.980Z,25.2
2022-10-05T06:19:41.487Z,25.2
2022-10-05T06:25:12.105Z,25.3
2022-10-05T06:30:41.536Z,25.3
2022-10-05T06:36:12.027Z,25.3
2022-10-05T06:41:42.510Z,25.3
2022-10-05T06:47:12.000Z,25.4
2022-10-05T06:52:42.463Z,25.4
2022-10-05T06:58:11.985Z,25.4
2022-10-05T07:03:42.434Z,25.4
2022-10-05T07:09:12.915Z,25.4
2022-10-05T07:14:42.421Z,25.5
2022-10-05T07:20:12.910Z,25.5
2022-10-05T07:25:43.452Z,25.6
2022-10-05T07:31:13.062Z,25.6
2022-10-05T07:36:43.489Z,25.6
2022-10-05T07:42:13.932Z,25.7
2022-10-05T07:47:43.518Z,25.7
2022-10-05T07:53:13.895Z,25.7
2022-10-05T07:58:43.399Z,25.7
2022-10-05T08:04:13.904Z,25.6
2022-10-05T08:09:44.334Z,25.6
2022-10-05T08:15:13.829Z,25.6
2022-10-05T08:20:44.340Z,25.6
2022-10-05T08:26:13.796Z,25.7
2022-10-05T08:31:44.802Z,25.7
2022-10-05T08:37:14.785Z,25.7
2022-10-05T08:42:45.322Z,25.7
2022-10-05T08:48:14.818Z,25.8
2022-10-05T08:53:45.323Z,25.8
2022-10-05T08:59:15.819Z,25.9
2022-10-05T09:04:45.285Z,25.9
2022-10-05T09:10:15.774Z,25.9
2022-10-05T09:15:45.386Z,25.9
2022-10-05T09:21:15.720Z,25.9
2022-10-05T09:26:46.239Z,25.9
2022-10-05T09:32:16.709Z,26
2022-10-05T09:37:46.168Z,26
2022-10-05T09:43:16.659Z,26
2022-10-05T09:48:46.138Z,26.2
2022-10-05T09:54:16.644Z,26.5
2022-10-05T09:59:47.287Z,26.7
2022-10-05T10:05:16.709Z,26.7
2022-10-05T10:10:47.207Z,26.7
2022-10-05T10:16:16.798Z,26.7
2022-10-05T10:21:47.503Z,26.7
2022-10-05T10:27:17.676Z,26.8
2022-10-05T10:32:47.211Z,26.7
2022-10-05T10:38:17.625Z,26.8
2022-10-05T10:43:48.201Z,26.8
2022-10-05T10:49:17.730Z,26.8
2022-10-05T10:54:48.169Z,26.8
2022-10-05T11:00:18.666Z,26.8
2022-10-05T11:05:48.905Z,26.9
2022-10-05T11:11:18.632Z,26.9
2022-10-05T11:16:49.421Z,26.9
2022-10-05T11:22:18.623Z,26.9
2022-10-05T11:27:49.191Z,26.9
2022-10-05T11:33:19.691Z,27
2022-10-05T11:38:50.296Z,27
2022-10-05T11:44:20.735Z,27
2022-10-05T11:49:51.223Z,27.1
2022-10-05T11:55:20.739Z,27.1
2022-10-05T12:00:51.187Z,27.1
2022-10-05T12:06:21.666Z,27.2
2022-10-05T12:11:54.362Z,27.2
2022-10-05T12:17:21.625Z,27.3
2022-10-05T12:22:52.114Z,27.3
2022-10-05T12:28:21.672Z,27.4
2022-10-05T12:33:52.077Z,27.4
2022-10-05T12:39:22.543Z,27.5
2022-10-05T12:44:52.045Z,27.5
2022-10-05T12:50:22.494Z,27.5
2022-10-05T12:55:51.996Z,27.5
2022-10-05T13:01:22.477Z,27.5
2022-10-05T13:06:52.938Z,27.6
2022-10-05T13:12:22.418Z,27.6
2022-10-05T13:17:52.915Z,27.6
2022-10-05T13:23:23.367Z,27.5
2022-10-05T13:28:52.839Z,27.5
2022-10-05T13:34:23.380Z,27.5
2022-10-05T13:39:53.956Z,27.5
2022-10-05T13:45:23.325Z,27.4
2022-10-05T13:50:53.873Z,27.4
2022-10-05T13:56:24.277Z,27.4
2022-10-05T14:01:53.808Z,27.4
2022-10-05T14:07:24.304Z,27.4
2022-10-05T14:18:24.206Z,27.3
2022-10-05T14:23:54.765Z,27.3
2022-10-05T14:29:24.173Z,27.2
2022-10-05T14:34:54.643Z,27.2
2022-10-05T14:40:25.278Z,27.2
2022-10-05T14:45:54.696Z,27.2
2022-10-05T14:51:25.071Z,27.1
2022-10-05T14:56:55.664Z,27.1
2022-10-05T15:02:25.097Z,27.1
2022-10-05T15:07:55.510Z,27
2022-10-05T15:13:26.103Z,26.9
2022-10-05T15:18:54.492Z,26.9
2022-10-05T15:24:24.975Z,26.9
2022-10-05T15:29:55.493Z,26.8
2022-10-05T15:35:25.924Z,26.8
2022-10-05T15:40:55.414Z,26.8
2022-10-05T15:46:26.002Z,26.7
2022-10-05T15:51:56.371Z,26.7
2022-10-05T15:57:26.829Z,26.7
2022-10-05T16:02:56.368Z,26.6
2022-10-05T16:08:26.800Z,26.6
2022-10-05T16:13:57.267Z,26.6
2022-10-05T16:19:27.936Z,26.5
2022-10-05T16:24:58.357Z,26.5
2022-10-05T16:30:28.900Z,26.5
2022-10-05T16:35:58.620Z,26.5
2022-10-05T16:41:28.785Z,26.5
2022-10-05T16:46:59.282Z,26.4
2022-10-05T16:52:28.816Z,26.4
2022-10-05T16:57:59.266Z,26.4
2022-10-05T17:03:29.733Z,26.4
2022-10-05T17:08:59.302Z,26.4
2022-10-05T17:14:29.709Z,26.3
2022-10-05T17:20:00.200Z,26.3
2022-10-05T17:25:29.793Z,26.3
2022-10-05T17:31:00.247Z,26.3
2022-10-05T17:36:29.660Z,26.3
2022-10-05T17:42:00.364Z,26.3
2022-10-05T17:47:30.726Z,26.3
2022-10-05T17:53:02.447Z,26.3
2022-10-05T17:58:30.740Z,26.3
2022-10-05T18:04:01.180Z,26.3
2022-10-05T18:09:30.661Z,26.3
2022-10-05T18:15:01.180Z,26.3
2022-10-05T18:20:31.794Z,26.2
2022-10-05T18:26:01.105Z,26.2
2022-10-05T18:31:31.732Z,26.2
2022-10-05T18:37:01.064Z,26.2
2022-10-05T18:42:31.653Z,26.2
2022-10-05T18:48:02.199Z,26.2
2022-10-05T18:53:32.594Z,26.2
2022-10-05T18:59:02.076Z,26.2
2022-10-05T19:04:31.597Z,26.2
2022-10-05T19:10:02.065Z,26.2
2022-10-05T19:15:32.582Z,26.2
2022-10-05T19:21:02.055Z,26.2
2022-10-05T19:26:32.504Z,26.1
2022-10-05T19:32:02.970Z,26.1
2022-10-05T19:37:33.494Z,26.1
2022-10-05T19:43:02.954Z,26.1
2022-10-05T19:48:33.428Z,26.1
2022-10-05T19:54:03.967Z,26.1
2022-10-05T19:59:34.385Z,26
2022-10-05T20:05:03.887Z,26
2022-10-05T20:10:34.372Z,26
2022-10-05T20:16:04.906Z,26
2022-10-05T20:21:34.325Z,26
2022-10-05T20:27:04.897Z,26
2022-10-05T20:32:35.316Z,26
2022-10-05T20:38:04.757Z,26
2022-10-05T20:43:35.521Z,25.9
2022-10-05T20:49:05.736Z,25.9
2022-10-05T20:54:36.239Z,25.9
2022-10-05T21:00:05.718Z,25.9
2022-10-05T21:05:36.146Z,25.9
2022-10-05T21:11:06.640Z,25.9
2022-10-05T21:16:36.411Z,25.9
2022-10-05T21:22:06.754Z,25.9
2022-10-05T21:27:37.224Z,25.8
2022-10-05T21:33:06.726Z,25.8
2022-10-05T21:38:37.176Z,25.8
2022-10-05T21:44:07.752Z,25.9
2022-10-05T21:49:37.325Z,25.8
2022-10-05T21:55:07.664Z,25.9
2022-10-05T22:00:38.353Z,25.8
2022-10-05T22:06:07.795Z,25.8
2022-10-05T22:11:38.193Z,25.8
2022-10-05T22:17:08.722Z,25.8
2022-10-05T22:22:38.287Z,25.8
2022-10-05T22:28:08.801Z,25.8
2022-10-05T22:33:39.152Z,25.8
2022-10-05T22:39:08.687Z,25.8
2022-10-05T22:44:38.148Z,25.8
2022-10-05T22:50:08.619Z,25.8
2022-10-05T22:55:39.145Z,25.8
2022-10-05T23:01:09.805Z,25.7
2022-10-05T23:06:39.168Z,25.7
2022-10-05T23:12:09.680Z,25.7
2022-10-05T23:17:40.153Z,25.7
2022-10-05T23:23:09.630Z,25.7
2022-10-05T23:28:40.247Z,25.7
2022-10-05T23:34:09.616Z,25.7
2022-10-05T23:39:40.087Z,25.7
2022-10-05T23:45:10.645Z,25.7
2022-10-05T23:50:40.093Z,25.6
2022-10-05T23:56:10.575Z,25.6
